Terminal Aerodrome Forecast
Issued by NWS

Home | Current Version | Previous Version | Graphics & Text | Print | Product List | Glossary On
Versions: 1 2 3 4 5 6 7 8 9 10 11 12 13 14 15 16 17 18 19
000
FTUS43 KMPX 180520
TAFAXN
TAF
KAXN 180520Z 1806/1906 11013G20KT P6SM BKN100
     FM181100 14015G21KT P6SM SCT250
     FM181900 16018G26KT P6SM FEW050 BKN100 PROB30 1902/1906 5SM
      -TSRA BR BKN050CB=

USA.gov is the U.S. government's official web portal to all federal, state and local government web resources and services.